Carnival Pride — H3VU — position and weather

sailwx.info

Track history (hours):
 
Tides and Currents Weather Stations Pressure Air Temp Water Temp Dewpoint Dewpoint Depression Visibility Wind Speed Wind Dir Waves Ship Positions

Carnival Pride

Operator: Carnival Cruise Lines

Last reported at 2014-Sep-15 07:31 UTC. Time now 2014-Sep-19 13:47 UTC.
Position N 36°48' W 075°46'.

Type: Ship. MMSI: 354215000.

Date/timePositionNaut miles runAvg speedWind from/ knotsBaromVisibWave heightAir tempDewpointWater temp
2014-Sep-15 07:31N 36°48' W 075°46'1515.1
2014-Sep-15 06:33N 36°58' W 075°60'1616.3
2014-Sep-15 05:33N 37°12' W 076°09'9118.1
2014-Sep-15 00:31N 38°42' W 076°26'1818.1
2014-Sep-14 23:33N 38°60' W 076°23'1212.1
2014-Sep-14 22:33N 39°11' W 076°28'8 7.7
2014-Sep-14 21:33N 39°16' W 076°36'0 0.2
2014-Sep-14 20:33N 39°16' W 076°36'0 0.0
2014-Sep-14 19:32N 39°16' W 076°36'0 0.0
2014-Sep-14 18:32N 39°16' W 076°36'0 0.0
2014-Sep-14 17:31N 39°16' W 076°36'0 0.0
2014-Sep-14 16:31N 39°16' W 076°36'0 0.0
2014-Sep-14 15:31N 39°16' W 076°36'0 0.0
2014-Sep-14 14:33N 39°16' W 076°36'0 0.0
2014-Sep-14 13:33N 39°16' W 076°36'0 0.0
2014-Sep-14 12:33N 39°16' W 076°36'7 7.4
2014-Sep-14 11:34N 39°11' W 076°28'1413.6
2014-Sep-14 10:34N 38°58' W 076°23'1918.6
2014-Sep-14 09:33N 38°40' W 076°25'8219.0
2014-Sep-14 05:15N 37°20' W 076°05'1217.0
2014-Sep-14 04:33N 37°08' W 076°08'1615.7
2014-Sep-14 03:33N 36°56' W 075°56'13317.8
2014-Sep-13 20:07N 34°43' W 075°41'1321.9
2014-Sep-13 19:33N 34°35' W 075°52'2221.7
2014-Sep-13 18:33N 34°19' W 076°10'1324.1
2014-Sep-13 18:00N 34°12' W 076°24'46420.6 210 / 81019.010.8 30.025.029.0
2014-Sep-12 19:24N 26°50' W 079°10'  
2014-Sep-08 06:19N 36°52' W 075°53'1416.9
2014-Sep-08 05:30N 37°03' W 076°05'1616.7
2014-Sep-08 04:32N 37°19' W 076°06'8817.7
2014-Sep-07 23:33N 38°46' W 076°26'2713.7
2014-Sep-07 21:33N 39°13' W 076°32'4 4.2
2014-Sep-07 20:31N 39°16' W 076°36'0 0.0
2014-Sep-07 19:33N 39°16' W 076°36'0 0.0
2014-Sep-07 18:33N 39°16' W 076°36'0 0.0
2014-Sep-07 17:30N 39°16' W 076°36'0 0.0
2014-Sep-07 16:29N 39°16' W 076°36'0 0.0
2014-Sep-07 15:29N 39°16' W 076°36'0 0.0
2014-Sep-07 14:31N 39°16' W 076°36'0 0.0
2014-Sep-07 13:31N 39°16' W 076°36'0 0.5
2014-Sep-07 12:33N 39°16' W 076°35'8 8.2
2014-Sep-07 11:33N 39°11' W 076°27'1413.9
2014-Sep-07 10:34N 38°57' W 076°24'1817.9
2014-Sep-07 09:32N 38°39' W 076°25'8617.2
2014-Sep-07 04:33N 37°14' W 076°08'1615.8
2014-Sep-07 03:33N 36°59' W 076°01'1615.9
2014-Sep-07 02:33N 36°49' W 075°45'15118.9
2014-Sep-06 18:33N 34°19' W 076°10'  
Track history (hours):
 
Tides and Currents Weather Stations Pressure Air Temp Water Temp Dewpoint Dewpoint Depression Visibility Wind Speed Wind Dir Waves Ship Positions

Carnival Pride

Operator: Carnival Cruise Lines

Last reported at 2014-Sep-15 07:31 UTC. Time now 2014-Sep-19 13:47 UTC.
Position N 36°48' W 075°46'.

Type: Ship. MMSI: 354215000.

Date/timePositionNaut miles runAvg speedWind from/ knotsBaromVisibWave heightAir tempDewpointWater temp
2014-Sep-15 07:31N 36°48' W 075°46'1515.1
2014-Sep-15 06:33N 36°58' W 075°60'1616.3
2014-Sep-15 05:33N 37°12' W 076°09'9118.1
2014-Sep-15 00:31N 38°42' W 076°26'1818.1
2014-Sep-14 23:33N 38°60' W 076°23'1212.1
2014-Sep-14 22:33N 39°11' W 076°28'8 7.7
2014-Sep-14 21:33N 39°16' W 076°36'0 0.2
2014-Sep-14 20:33N 39°16' W 076°36'0 0.0
2014-Sep-14 19:32N 39°16' W 076°36'0 0.0
2014-Sep-14 18:32N 39°16' W 076°36'0 0.0
2014-Sep-14 17:31N 39°16' W 076°36'0 0.0
2014-Sep-14 16:31N 39°16' W 076°36'0 0.0
2014-Sep-14 15:31N 39°16' W 076°36'0 0.0
2014-Sep-14 14:33N 39°16' W 076°36'0 0.0
2014-Sep-14 13:33N 39°16' W 076°36'0 0.0
2014-Sep-14 12:33N 39°16' W 076°36'7 7.4
2014-Sep-14 11:34N 39°11' W 076°28'1413.6
2014-Sep-14 10:34N 38°58' W 076°23'1918.6
2014-Sep-14 09:33N 38°40' W 076°25'8219.0
2014-Sep-14 05:15N 37°20' W 076°05'1217.0
2014-Sep-14 04:33N 37°08' W 076°08'1615.7
2014-Sep-14 03:33N 36°56' W 075°56'13317.8
2014-Sep-13 20:07N 34°43' W 075°41'1321.9
2014-Sep-13 19:33N 34°35' W 075°52'2221.7
2014-Sep-13 18:33N 34°19' W 076°10'1324.1
2014-Sep-13 18:00N 34°12' W 076°24'46420.6 210 / 81019.010.8 30.025.029.0
2014-Sep-12 19:24N 26°50' W 079°10'  
2014-Sep-08 06:19N 36°52' W 075°53'1416.9
2014-Sep-08 05:30N 37°03' W 076°05'1616.7
2014-Sep-08 04:32N 37°19' W 076°06'8817.7
2014-Sep-07 23:33N 38°46' W 076°26'2713.7
2014-Sep-07 21:33N 39°13' W 076°32'4 4.2
2014-Sep-07 20:31N 39°16' W 076°36'0 0.0
2014-Sep-07 19:33N 39°16' W 076°36'0 0.0
2014-Sep-07 18:33N 39°16' W 076°36'0 0.0
2014-Sep-07 17:30N 39°16' W 076°36'0 0.0
2014-Sep-07 16:29N 39°16' W 076°36'0 0.0
2014-Sep-07 15:29N 39°16' W 076°36'0 0.0
2014-Sep-07 14:31N 39°16' W 076°36'0 0.0
2014-Sep-07 13:31N 39°16' W 076°36'0 0.5
2014-Sep-07 12:33N 39°16' W 076°35'8 8.2
2014-Sep-07 11:33N 39°11' W 076°27'1413.9
2014-Sep-07 10:34N 38°57' W 076°24'1817.9
2014-Sep-07 09:32N 38°39' W 076°25'8617.2
2014-Sep-07 04:33N 37°14' W 076°08'1615.8
2014-Sep-07 03:33N 36°59' W 076°01'1615.9
2014-Sep-07 02:33N 36°49' W 075°45'15118.9
2014-Sep-06 18:33N 34°19' W 076°10'  

Dump ship's entire track history